Scroll down
FLIGHT INFORMATION
Cathay Pacific

CPA885

At Arrival Gate

KLAX
 VHHX
DATE: 2019-07-22
GATE: 133
GATE DEPARTURE: 04:10
TAKEOFF: 04:20
DATE: 2019-07-22
GATE:  -
LANDING: 18:17
GATE ARRIVAL: 18:24
FLIGHT DATA
Crew: 
Speed: 
512 kts
Altitude: 
39,008 ft
Stage Length: 
6,286.9 nm
Block Time: 
14.2 hrs
Flight Time: 
14 hrs
Fuel Used: 
324,609 lb
Cleared Route: KLAX MCKEY LIBBO BRINY ALCOA BUTEN BOSKE 37N40 36N50 36N60 36N70 36E80 37E70 39E60 EMRON AVBET IDLAN POROT OLDIV LESPO INUBO PIGOK TOKIS SEDRI ELNIS SANOR OLTOM AKUVU LABEL BALSA SUKMO DONKY LEONA HKC KOSHI JEDAI RUSAR AKVAS URUMA SAPET IGMON BULAN OSTAR AISAR DRAKE ANNNA APU MKG KADLO ANPOG ELATO MAGOG ENPET FISHA ABBEY VHHX
TRACK DATA
50,000 ft 1,000 kts
AIRCRAFT INFO AND CUMULATIVE STATS
Aircraft Type: 
B744
Registration: 
SELCAL: 
HJCL
MSN/LN: 
24631 / 771
Operator: 
Total Flights: 
12
Total Block Time: 
108.4 hrs
Total Flight Time: 
105.2 hrs
Total Fuel Time: 
2,470,574 lb
DATALINK LOG | Newest first | Current as of: 2020-12-05 21:18:34
LABEL SEQUENCE CONTENT Dn/Up
QD253818:24 58.3▼ Dn
QC170518:17▼ Dn
2U3135VHHH 221700Z 08005KT 9999 FEW015 28/25 Q1005 NOSIG▲ Up
2S2854VHHH▼ Dn
2U2328VHHH 221600Z 35004KT 9999 -SHRA FEW015 28/25 Q1006 NOSIG▲ Up
2S1903VHHH▼ Dn
QB200904:20▼ Dn
QA114604:10 382.9▼ Dn
2U0624KLAX 220353Z 23009KT 10SM BKN009 18/16 A2990 RMK AO2 SLP123 T01830156 $▲ Up
2S0542KLAX▼ Dn
A30624CLEARED TO VHHX VIA SUMMR1 MCKEY LIBBO BRINY ALCOA BUTEN BOSKE 3700N/14000W 3600N/15000W 3600N/16000W 3600N/17000W 3600N/18000E 3700N/17000E 3900N/16000E EMRON OTR9 AVBET Y809 LESPO Y806 INUBO Y50 JEDAI Y50 IGMON A1 APU MKG A1 ELATO V522 ABBEY. SQUAWK 6722.▲ Up
Q00511[LINK ACK]▲ Up
Q00303[LINK TEST]▼ Dn


AIRCRAFT HISTORY
FLIGHT DATE FLIGHT NO. ORIGIN DESTINATION CLEARED ROUTE BLOCK TIME FLIGHT TIME FUEL USED PILOT
2019-07-26CPA882VHHX KLAX VHHX OCEAN RASSE CONGA ENVAR DADON EXTRA RENOT TONGA TOROX ANLOT PILOX SANAS KUDOS LEKOS MORSU MOLKA MAMOD MUMBA MELEN MOMPA MIDAI MADOG MEXIR IMPAL OTOWA ANKIX IGMIS MOSLO TASOT LAKOS LIGNI POROT IDLAN AVBET LEPKI 37E60 37E70 37E80 37N70 37N60 37N50 37N40 39N30 DACEM PAINT PIRAT BURGL KLAX13.8 hrs13.4 hrs330,101 lbKyle Rodgers
2019-07-22CPA885KLAX VHHX KLAX MCKEY LIBBO BRINY ALCOA BUTEN BOSKE 37N40 36N50 36N60 36N70 36E80 37E70 39E60 EMRON AVBET IDLAN POROT OLDIV LESPO INUBO PIGOK TOKIS SEDRI ELNIS SANOR OLTOM AKUVU LABEL BALSA SUKMO DONKY LEONA HKC KOSHI JEDAI RUSAR AKVAS URUMA SAPET IGMON BULAN OSTAR AISAR DRAKE ANNNA APU MKG KADLO ANPOG ELATO MAGOG ENPET FISHA ABBEY VHHX14.2 hrs14 hrs324,609 lbKyle Rodgers
2019-07-20CPA880VHHX KLAX VHHX OCEAN RASSE CONGA ENVAR DADON EXTRA RENOT TONGA TOROX ANLOT PILOX SANAS KUDOS LEKOS MORSU MOLKA MAMOD MUMBA MELEN MOMPA MIDAI MADOG MEXIR IMPAL OTOWA ANKIX IGMIS MOSLO TASOT LAKOS LIGNI IPROS LAPIL SEALS 36E50 39E60 42E70 44E80 45N70 45N60 44N50 43N40 40N30 DACEM PAINT PIRAT BURGL IRNMN KLAX12.7 hrs12.4 hrs308,185 lbKyle Rodgers
2018-11-08CPA833KLAX VHHX RCKYY SKWRL SNS PYE VESPA ZANNG 48N40 51N50 53N60 54N70 CURVS SYA PLADO OLCOT OPHET OGDEN OMOTO OPULO ONEMU HPE D236L HANKA MAMRO GTC20 GTC TERAD HAKBA GORYU IKUJI URUSI IMIZU OYABE KMC YME OLIVE BIZEN PIONE DANGO WASYU BINGO BAMBO ONDOC MARCO CLIPA ESBIS MIKES SALMI DUBAN BERBA FITCH BESTO DOTMI MAGOG ALPHA MAG50 WISKY15.6 hrs15.4 hrs365,686 lbKyle Rodgers
2018-10-29CPA889VHHX KLAX TH WISKY KILOG ENVAR DADON EXTRA RENOT TONGA TOROX ANLOT PILOX SANAS KUDOS LEKOS MORSU MOLKA MAMOD MUMBA MELEN MOMPA MIDAI MADOG MEXIR IMPAL OTOWA BILLY TAERU BUNGU BAFFY CHEVY SYOYU KAGIS SCORE AVBET EMRON 40E60 43E70 46E80 49N70 51N60 51N50 49N40 44N30 MITOH ENI BURGL DOUIT CROWY MUPTT MDOTS GRIPR BIKNG RUNNN IRNMN SYMON BAYST JUUSE CLIFY DAHJR GADDO12.2 hrs11.8 hrs287,103 lbKyle Rodgers
2018-09-10CPA8019RJTT VHHX 4 hrs3.6 hrs73,929 lbRobert S. Randazzo
2018-09-09CPA8018VHHX RJTT 3.9 hrs3.5 hrs76,153 lbRobert S. Randazzo
2018-08-24CPA8017ZBAA VHHX 3.1 hrs2.9 hrs60,429 lbRobert S. Randazzo
2018-08-23CPA8016VHHX ZBAA 2.9 hrs2.6 hrs56,400 lbRobert S. Randazzo
2018-08-19CPA8015KSFO VHHX 13.8 hrs13.3 hrs322,404 lbRobert S. Randazzo
2018-08-18CPA8013KJFK KSFO 5.7 hrs5.4 hrs120,645 lbRobert S. Randazzo
2018-07-25CPA8013EGLL KJFK 7.3 hrs7 hrs144,929 lbRobert S. Randazzo